KSUX/SUX METAR and TAF weather

Enter ICAO airport designator
Station Type Date Time Source
KSUX METAR 2022/07/03 14:52 UTC NOAA

KSUX 031452Z 15010KT 10SM CLR 25/19 A3004 RMK AO2 SLP164 T02500194 50005


Station Type Date Time Source
KSUX Decoded METAR 2022/07/03 14:52 UTC NOAA

SIOUX GATEWAY AIRPORT, IA, United States (KSUX) 42-23N 96-23W 338M
Jul 03, 2022 - 10:52 AM EDT / 2022.07.03 1452 UTC
Wind: from the SSE (150 degrees) at 12 MPH (10 KT):0
Visibility: 10 mile(s):0
Sky conditions: clear
Temperature: 77.0 F (25.0 C)
Dew Point: 66.9 F (19.4 C)
Relative Humidity: 71%
Pressure (altimeter): 30.04 in. Hg (1017 hPa)
Pressure tendency: 0.01 inches (0.5 hPa) higher than three hours ago
ob: KSUX 031452Z 15010KT 10SM CLR 25/19 A3004 RMK AO2 SLP164 T02500194 50005
cycle: 15

Station Type Date Time Source
KSUX TAF 2022/07/03 14:22 UTC NOAA

TAF
AMD KSUX 031420Z 0314/0412 14007KT P6SM SCT008
FM031500 16012G17KT P6SM FEW250
FM031900 16016G22KT P6SM FEW250
FM040100 16014G18KT P6SM FEW250
FM040900 14010G16KT P6SM FEW250

Example: see airport list